Time;durP1;ratioP1;P1;durP2;ratioP2;P2;SDS_P1;SDS_P2;PMS_P1;PMS_P2;Temp;Humidity;BMP_temperature;BMP_pressure;BME280_temperature;BME280_humidity;BME280_pressure;Samples;Min_cycle;Max_cycle;Signal;HPM_P1;HPM_P2
2022/08/13 00:01:15;;;;;;;4.83;2.60;;;;;;;;;;5069045;28;46476;-67
2022/08/13 00:03:42;;;;;;;5.73;2.43;;;;;;;;;;5070454;28;46465;-67
2022/08/13 00:06:08;;;;;;;5.53;2.63;;;;;;;;;;5069675;28;46572;-70
2022/08/13 00:08:35;;;;;;;7.03;2.70;;;14.20;28.80;;;;;;5068479;28;46363;-69
2022/08/13 00:11:01;;;;;;;4.20;2.90;;;;;;;;;;5069588;28;46898;-68
2022/08/13 00:13:27;;;;;;;4.43;2.70;;;14.00;44.40;;;;;;5067779;27;46678;-67
2022/08/13 00:15:53;;;;;;;4.10;2.57;;;;;;;;;;5068364;28;46393;-68
2022/08/13 00:18:22;;;;;;;7.17;2.70;;;13.70;29.90;;;;;;5063181;28;45977;-68
2022/08/13 00:20:55;;;;;;;11.90;3.10;;;13.50;30.10;;;;;;5068595;28;46315;-67
2022/08/13 00:23:23;;;;;;;9.73;2.83;;;13.40;34.20;;;;;;5072383;28;46440;-67
2022/08/13 00:25:55;;;;;;;8.60;2.27;;;13.30;30.80;;;;;;5071353;28;46682;-67
2022/08/13 00:28:24;;;;;;;8.47;2.90;;;13.30;31.10;;;;;;5071607;28;46448;-67
2022/08/13 00:30:50;;;;;;;4.10;2.87;;;;;;;;;;5072344;28;46364;-67
2022/08/13 00:33:19;;;;;;;4.57;2.40;;;13.10;30.90;;;;;;5072837;28;47588;-67
2022/08/13 00:35:47;;;;;;;5.63;3.07;;;13.20;30.90;;;;;;5071817;28;46418;-66
2022/08/13 00:38:28;;;;;;;6.60;2.93;;;13.20;31.10;;;;;;5071036;28;45869;-67
2022/08/13 00:40:58;;;;;;;5.20;2.90;;;13.10;31.20;;;;;;5073719;28;46455;-70
2022/08/13 00:43:26;;;;;;;4.53;2.57;;;13.30;31.90;;;;;;5072175;28;46576;-68
2022/08/13 00:45:52;;;;;;;3.90;2.80;;;13.00;44.30;;;;;;5071535;28;46449;-67
2022/08/13 00:51:05;;;;;;;7.77;3.17;;;12.80;32.20;;;;;;5072301;28;46481;-67
2022/08/13 00:53:31;;;;;;;6.30;3.03;;;12.60;37.70;;;;;;5073364;28;46977;-66
2022/08/13 00:55:58;;;;;;;3.47;2.30;;;12.50;36.90;;;;;;5072067;28;46412;-67
2022/08/13 00:58:27;;;;;;;4.50;2.60;;;12.80;40.90;;;;;;5071104;28;46484;-67
2022/08/13 01:00:58;;;;;;;5.63;2.80;;;12.70;32.20;;;;;;5070815;28;46936;-68
2022/08/13 01:03:27;;;;;;;3.90;2.70;;;12.70;32.30;;;;;;5072105;28;46857;-67
2022/08/13 01:05:59;;;;;;;5.17;3.27;;;;;;;;;;5070250;28;46468;-66
2022/08/13 01:08:26;;;;;;;7.67;3.23;;;12.70;42.30;;;;;;5070349;28;46623;-66
2022/08/13 01:10:56;;;;;;;4.40;3.30;;;12.60;32.50;;;;;;5071014;28;45912;-67
2022/08/13 01:13:25;;;;;;;10.20;3.10;;;12.70;32.70;;;;;;5070948;28;47053;-68
2022/08/13 01:15:51;;;;;;;3.90;2.90;;;12.50;35.90;;;;;;5070725;28;45774;-67
2022/08/13 01:18:20;;;;;;;5.90;3.53;;;12.70;32.80;;;;;;5071595;28;46511;-68
2022/08/13 01:20:50;;;;;;;12.50;3.40;;;12.60;32.80;;;;;;5070276;27;46385;-67
2022/08/13 01:23:17;;;;;;;5.97;3.23;;;12.70;33.00;;;;;;5072151;28;46441;-68
2022/08/13 01:25:44;;;;;;;4.60;3.30;;;12.70;33.30;;;;;;5070254;28;46457;-67
2022/08/13 01:28:16;;;;;;;3.93;2.73;;;12.90;33.80;;;;;;5071382;28;46629;-67
2022/08/13 01:30:46;;;;;;;4.47;2.60;;;12.50;34.50;;;;;;5069206;28;46690;-67
2022/08/13 01:33:15;;;;;;;5.50;2.60;;;12.40;33.40;;;;;;5072337;28;46723;-68
2022/08/13 01:35:42;;;;;;;4.57;2.70;;;12.30;33.60;;;;;;5069271;28;45882;-67
2022/08/13 01:38:08;;;;;;;3.90;2.77;;;11.90;34.00;;;;;;5071106;28;45935;-68
2022/08/13 01:40:34;;;;;;;10.50;3.53;;;11.70;49.60;;;;;;5072199;27;46483;-67
2022/08/13 01:43:00;;;;;;;9.73;3.20;;;12.20;33.80;;;;;;5070634;28;46472;-67
2022/08/13 01:45:28;;;;;;;4.47;2.80;;;12.00;33.90;;;;;;5070682;28;46507;-68
2022/08/13 01:50:38;;;;;;;4.13;2.80;;;11.40;50.80;;;;;;5070889;28;46405;-67
2022/08/13 01:53:16;;;;;;;4.33;2.97;;;11.80;34.10;;;;;;5072419;28;46484;-66
2022/08/13 01:56:09;;;;;;;7.63;4.90;;;11.90;52.10;;;;;;5071831;28;46481;-65
2022/08/13 01:58:35;;;;;;;6.37;3.83;;;11.80;50.50;;;;;;5066370;28;46599;-68
2022/08/13 02:01:03;;;;;;;10.83;3.27;;;11.40;44.80;;;;;;5072609;28;46478;-67
2022/08/13 02:03:30;;;;;;;4.73;3.30;;;;;;;;;;5069319;28;46488;-70
2022/08/13 02:05:56;;;;;;;10.70;3.10;;;11.80;51.80;;;;;;5071610;28;46443;-67
2022/08/13 02:08:24;;;;;;;5.63;3.50;;;11.50;34.90;;;;;;5068866;28;46435;-68
2022/08/13 02:10:53;;;;;;;3.83;3.03;;;11.50;35.10;;;;;;5071419;28;46375;-66
2022/08/13 02:13:23;;;;;;;7.63;3.60;;;12.20;37.20;;;;;;5071410;27;46704;-67
2022/08/13 02:15:49;;;;;;;6.20;3.20;;;11.40;35.50;;;;;;5068092;28;46377;-68
2022/08/13 02:18:19;;;;;;;8.77;3.50;;;11.60;37.80;;;;;;5070458;28;45996;-68
2022/08/13 02:20:50;;;;;;;5.80;3.47;;;11.30;35.00;;;;;;5069126;28;46545;-67
2022/08/13 02:23:19;;;;;;;6.40;3.40;;;11.70;52.30;;;;;;5070030;28;46580;-66
2022/08/13 02:25:46;;;;;;;5.13;3.37;;;11.50;35.10;;;;;;5071098;28;46750;-67
2022/08/13 02:28:14;;;;;;;5.73;3.80;;;11.50;35.10;;;;;;5072882;28;46463;-70
2022/08/13 02:30:42;;;;;;;6.07;3.37;;;11.70;38.10;;;;;;5078777;28;45922;-67
2022/08/13 02:33:08;;;;;;;4.87;3.20;;;;;;;;;;5070467;28;46681;-67
2022/08/13 02:35:35;;;;;;;6.07;3.60;;;11.30;49.90;;;;;;5071295;28;46619;-67
2022/08/13 02:38:02;;;;;;;10.03;3.70;;;11.20;50.00;;;;;;5069571;28;46436;-67
2022/08/13 02:43:13;;;;;;;8.50;4.13;;;;;;;;;;5067361;28;46583;-65
2022/08/13 02:45:40;;;;;;;5.10;3.50;;;11.30;36.00;;;;;;5070474;27;46377;-67
2022/08/13 02:48:06;;;;;;;6.50;3.60;;;11.50;37.30;;;;;;5067769;28;46536;-67
2022/08/13 02:50:33;;;;;;;6.57;3.70;;;11.30;36.00;;;;;;5068915;28;46397;-67
2022/08/13 02:53:00;;;;;;;5.40;3.57;;;;;;;;;;5069547;28;46692;-70
2022/08/13 02:55:29;;;;;;;6.37;3.50;;;11.20;36.10;;;;;;5070889;28;45908;-67
2022/08/13 02:57:55;;;;;;;6.40;3.40;;;11.20;53.40;;;;;;5067985;28;46448;-67
2022/08/13 03:00:21;;;;;;;4.80;3.63;;;11.20;52.50;;;;;;5069097;28;46327;-66
2022/08/13 03:02:47;;;;;;;7.00;4.73;;;11.10;53.30;;;;;;5069651;28;46488;-67
2022/08/13 03:05:15;;;;;;;13.47;4.00;;;11.30;45.50;;;;;;5069040;28;46472;-67
2022/08/13 03:07:42;;;;;;;7.03;3.97;;;11.20;36.70;;;;;;5069672;28;46625;-67
2022/08/13 03:10:11;;;;;;;5.17;3.80;;;10.60;42.50;;;;;;5068851;28;46424;-67
2022/08/13 03:12:41;;;;;;;7.10;4.37;;;11.10;54.80;;;;;;5067583;28;46596;-67
2022/08/13 03:15:13;;;;;;;11.30;4.50;;;11.10;38.70;;;;;;5069229;28;46363;-67
2022/08/13 03:17:40;;;;;;;8.40;4.80;;;11.10;37.10;;;;;;5070387;28;46412;-67
2022/08/13 03:20:08;;;;;;;5.20;3.80;;;11.10;37.00;;;;;;5069062;28;46479;-69
2022/08/13 03:22:47;;;;;;;6.10;3.50;;;11.10;37.10;;;;;;5070173;28;48548;-67
2022/08/13 03:25:13;;;;;;;7.03;4.20;;;;;;;;;;5068595;28;46421;-68
2022/08/13 03:27:39;;;;;;;5.43;3.53;;;;;;;;;;5066967;28;46441;-66
2022/08/13 03:30:06;;;;;;;6.57;3.50;;;11.10;52.70;;;;;;5068105;28;46534;-67
2022/08/13 03:32:36;;;;;;;12.13;3.90;;;11.40;39.00;;;;;;5068160;28;47070;-68
2022/08/13 03:35:02;;;;;;;7.30;3.93;;;;;;;;;;5069322;28;46659;-67
2022/08/13 03:37:28;;;;;;;5.70;3.90;;;;;;;;;;5066846;28;46479;-67
2022/08/13 03:39:54;;;;;;;9.87;4.37;;;10.90;55.60;;;;;;5069319;28;46674;-67
2022/08/13 03:42:20;;;;;;;5.10;3.50;;;;;;;;;;5069307;28;47300;-67
2022/08/13 03:44:45;;;;;;;6.20;3.10;;;10.60;55.50;;;;;;5068217;28;46464;-66
2022/08/13 03:47:13;;;;;;;15.00;3.73;;;;;;;;;;5069770;28;45932;-69
2022/08/13 03:49:39;;;;;;;4.67;3.47;;;;;;;;;;5070732;28;46532;-66
2022/08/13 03:52:05;;;;;;;4.50;3.00;;;;;;;;;;5069538;28;47165;-67
2022/08/13 03:54:32;;;;;;;4.50;3.50;;;;;;;;;;5069190;28;45923;-69
2022/08/13 03:56:58;;;;;;;5.80;3.50;;;;;;;;;;5067461;27;46389;-68
2022/08/13 03:59:24;;;;;;;4.60;3.57;;;;;;;;;;5070110;28;46941;-67
2022/08/13 04:01:51;;;;;;;6.00;3.70;;;;;;;;;;5069887;28;47236;-67
2022/08/13 04:04:18;;;;;;;6.00;3.30;;;;;;;;;;5068424;28;46350;-68
2022/08/13 04:06:44;;;;;;;5.60;3.83;;;10.60;51.60;;;;;;5067571;28;46381;-67
2022/08/13 04:09:09;;;;;;;6.30;3.63;;;10.40;55.70;;;;;;5068939;28;46417;-67
2022/08/13 04:11:35;;;;;;;4.97;3.20;;;;;;;;;;5067120;28;47221;-67
2022/08/13 04:14:01;;;;;;;6.63;3.83;;;;;;;;;;5068950;28;46461;-68
2022/08/13 04:16:27;;;;;;;5.83;3.67;;;;;;;;;;5066703;28;46541;-67
2022/08/13 04:18:54;;;;;;;9.27;5.70;;;;;;;;;;5068151;28;46510;-68
2022/08/13 04:21:24;;;;;;;7.63;5.27;;;11.00;54.00;;;;;;5070114;27;47167;-67
2022/08/13 04:23:52;;;;;;;9.03;5.87;;;10.70;38.30;;;;;;5066563;28;46491;-67
2022/08/13 04:26:21;;;;;;;8.80;4.60;;;;;;;;;;5066534;28;46484;-68
2022/08/13 04:28:47;;;;;;;6.00;4.30;;;;;;;;;;5067984;28;46559;-67
2022/08/13 04:31:15;;;;;;;6.57;4.13;;;;;;;;;;5069255;28;46416;-66
2022/08/13 04:33:40;;;;;;;5.83;3.70;;;11.10;48.00;;;;;;5068152;28;46314;-67
2022/08/13 04:36:07;;;;;;;6.80;3.77;;;11.30;37.20;;;;;;5068640;28;47068;-67
2022/08/13 04:38:33;;;;;;;5.10;3.37;;;11.30;37.20;;;;;;5069276;28;46536;-68
2022/08/13 04:40:59;;;;;;;5.70;3.20;;;11.10;44.40;;;;;;5067970;28;46359;-67
2022/08/13 04:43:25;;;;;;;10.33;3.50;;;;;;;;;;5068021;28;46358;-67
2022/08/13 04:45:51;;;;;;;3.77;3.10;;;11.30;37.20;;;;;;5066693;28;46458;-67
2022/08/13 04:48:17;;;;;;;6.10;3.47;;;;;;;;;;5069064;28;46318;-68
2022/08/13 04:50:45;;;;;;;5.43;3.57;;;11.50;37.10;;;;;;5068501;28;46459;-67
2022/08/13 04:53:25;;;;;;;4.90;3.70;;;11.60;37.20;;;;;;5068143;28;46388;-67
2022/08/13 04:55:52;;;;;;;4.70;3.40;;;11.70;49.60;;;;;;5066124;28;46446;-67
2022/08/13 04:58:18;;;;;;;5.13;3.23;;;;;;;;;;5069153;28;46627;-65
2022/08/13 05:00:45;;;;;;;4.70;3.43;;;12.10;44.40;;;;;;5068448;28;48026;-67
2022/08/13 05:03:15;;;;;;;6.57;3.77;;;12.20;36.10;;;;;;5067948;28;46386;-67
2022/08/13 05:05:43;;;;;;;5.43;3.73;;;12.30;36.50;;;;;;5067879;28;46494;-67
2022/08/13 05:08:10;;;;;;;6.47;3.40;;;13.00;35.50;;;;;;5067563;28;46579;-68
2022/08/13 05:10:40;;;;;;;5.20;3.60;;;;;;;;;;5072199;28;46205;-67
2022/08/13 05:13:20;;;;;;;5.70;3.90;;;14.30;34.40;;;;;;5074247;28;46483;-68
2022/08/13 05:15:46;;;;;;;12.53;3.60;;;15.40;35.10;;;;;;5079959;28;45902;-67
2022/08/13 05:18:12;;;;;;;11.70;4.00;;;15.80;43.80;;;;;;5073444;28;46422;-67
2022/08/13 05:20:39;;;;;;;4.93;3.30;;;;;;;;;;5053225;28;48125;-67
2022/08/13 05:23:12;;;;;;;9.70;2.80;;;17.10;30.30;;;;;;5071685;28;46452;-69
2022/08/13 05:25:39;;;;;;;7.23;3.90;;;;;;;;;;5071615;28;46440;-67
2022/08/13 05:28:05;;;;;;;4.20;2.90;;;;;;;;;;5072135;28;46627;-67
2022/08/13 05:30:30;;;;;;;5.43;3.63;;;18.90;44.00;;;;;;5070612;27;46420;-65
2022/08/13 05:32:58;;;;;;;5.20;3.23;;;19.50;28.30;;;;;;5069510;27;46416;-66
2022/08/13 05:35:25;;;;;;;5.47;3.07;;;20.30;27.00;;;;;;5062148;28;46571;-66
2022/08/13 05:37:51;;;;;;;5.33;3.97;;;20.90;34.10;;;;;;5058462;28;46598;-65
2022/08/13 05:40:17;;;;;;;8.07;4.90;;;22.30;25.30;;;;;;5058877;28;46591;-66
2022/08/13 05:42:43;;;;;;;8.17;5.23;;;;;;;;;;5060035;28;46418;-66
2022/08/13 05:45:09;;;;;;;12.10;5.63;;;23.50;21.70;;;;;;5058415;28;46448;-66
2022/08/13 05:47:38;;;;;;;7.53;5.10;;;;;;;;;;5059580;28;46552;-66
2022/08/13 05:50:13;;;;;;;8.30;4.13;;;25.00;29.10;;;;;;5059329;28;48109;-67
2022/08/13 05:52:39;;;;;;;8.20;4.33;;;25.40;18.20;;;;;;5059588;28;46424;-64
2022/08/13 05:55:07;;;;;;;7.50;4.30;;;25.90;17.00;;;;;;5059558;28;46413;-65
2022/08/13 05:57:32;;;;;;;7.67;4.00;;;26.50;18.90;;;;;;5059517;28;46440;-67
2022/08/13 06:05:26;;;;;;;6.53;3.60;;;27.70;15.70;;;;;;5060383;28;46437;-67
2022/08/13 06:07:53;;;;;;;5.07;3.50;;;27.90;20.60;;;;;;5061910;28;46672;-67
2022/08/13 06:10:19;;;;;;;5.20;3.23;;;;;;;;;;5061666;28;46436;-67
2022/08/13 06:12:45;;;;;;;4.60;3.67;;;27.90;18.20;;;;;;5062365;28;46421;-67
2022/08/13 06:15:11;;;;;;;5.90;3.30;;;28.10;13.10;;;;;;5060507;28;46514;-65
2022/08/13 06:17:37;;;;;;;4.03;3.00;;;27.60;11.90;;;;;;5060060;28;46359;-65
2022/08/13 06:20:05;;;;;;;6.07;3.10;;;27.50;11.30;;;;;;5059908;28;47247;-65
2022/08/13 06:22:33;;;;;;;5.00;2.80;;;27.30;13.90;;;;;;5061899;28;46313;-66
2022/08/13 06:25:02;;;;;;;5.23;3.00;;;27.10;10.40;;;;;;5060679;28;46494;-65
2022/08/13 06:27:28;;;;;;;4.97;3.30;;;;;;;;;;5061209;28;46291;-66
2022/08/13 06:29:58;;;;;;;4.20;3.30;;;27.50;8.90;;;;;;5062764;28;47109;-65
2022/08/13 06:32:24;;;;;;;10.90;4.00;;;26.80;19.00;;;;;;5061553;28;45802;-64
2022/08/13 06:34:51;;;;;;;7.33;4.13;;;;;;;;;;5060938;28;46373;-64
2022/08/13 06:37:17;;;;;;;10.50;3.33;;;23.00;16.00;;;;;;5060538;28;46441;-64
2022/08/13 06:39:44;;;;;;;10.60;4.17;;;22.60;17.80;;;;;;5059742;28;46443;-65
2022/08/13 06:42:11;;;;;;;5.00;3.50;;;22.30;18.70;;;;;;5062418;28;45822;-65
2022/08/13 06:44:39;;;;;;;11.67;4.07;;;23.50;12.90;;;;;;5060480;28;46453;-66
2022/08/13 06:47:05;;;;;;;9.00;3.50;;;24.40;10.70;;;;;;5060092;28;46361;-65
2022/08/13 06:49:33;;;;;;;13.90;3.93;;;25.20;9.20;;;;;;5061543;28;47046;-66
2022/08/13 06:52:00;;;;;;;13.33;3.73;;;;;;;;;;5060297;28;46377;-67
2022/08/13 06:54:26;;;;;;;5.77;3.27;;;25.20;8.80;;;;;;5061397;28;46387;-65
2022/08/13 06:56:53;;;;;;;5.90;3.70;;;24.90;11.30;;;;;;5061337;28;46464;-66
2022/08/13 06:59:25;;;;;;;9.50;3.20;;;24.50;19.50;;;;;;5060311;28;46732;-66
2022/08/13 07:01:57;;;;;;;8.30;3.70;;;23.90;22.50;;;;;;5059991;28;46350;-66
2022/08/13 07:04:25;;;;;;;21.17;5.10;;;22.50;13.60;;;;;;5061198;28;46586;-64
2022/08/13 07:06:52;;;;;;;5.40;3.30;;;21.70;25.50;;;;;;5060799;28;46323;-66
2022/08/13 07:09:19;;;;;;;7.13;3.83;;;20.80;26.90;;;;;;5061844;28;47341;-65
2022/08/13 07:11:45;;;;;;;5.47;3.90;;;;;;;;;;5057649;28;46424;-66
2022/08/13 07:14:13;;;;;;;8.73;3.67;;;20.50;18.30;;;;;;5061991;28;46498;-66
2022/08/13 07:16:44;;;;;;;7.73;3.70;;;21.00;21.20;;;;;;5059482;28;46736;-66
2022/08/13 07:19:13;;;;;;;4.70;3.37;;;20.80;18.30;;;;;;5058191;28;47412;-66
2022/08/13 07:21:40;;;;;;;6.60;3.67;;;;;;;;;;5061897;28;46538;-66
2022/08/13 07:24:07;;;;;;;4.77;2.90;;;20.60;19.20;;;;;;5059279;28;46690;-66
2022/08/13 07:26:36;;;;;;;10.00;3.27;;;;;;;;;;5060411;28;46472;-66
2022/08/13 07:29:05;;;;;;;8.43;3.00;;;20.30;19.70;;;;;;5060000;28;47310;-66
2022/08/13 07:31:33;;;;;;;7.50;3.37;;;20.70;29.30;;;;;;5059506;28;46311;-66
2022/08/13 07:34:04;;;;;;;6.20;3.43;;;20.50;29.50;;;;;;5060770;28;46398;-66
2022/08/13 07:36:36;;;;;;;9.97;2.70;;;20.80;25.90;;;;;;5060754;28;46643;-66
2022/08/13 07:39:11;;;;;;;5.93;3.10;;;20.80;19.50;;;;;;5060106;28;46381;-65
2022/08/13 07:41:45;;;;;;;8.90;3.10;;;21.00;19.90;;;;;;5060128;28;46401;-66
2022/08/13 07:44:13;;;;;;;4.70;3.00;;;21.00;29.30;;;;;;5058966;28;46415;-66
2022/08/13 07:46:43;;;;;;;9.00;2.60;;;;;;;;;;5058851;28;46660;-66
2022/08/13 07:49:12;;;;;;;4.60;2.60;;;21.60;18.70;;;;;;5059601;28;46045;-66
2022/08/13 07:51:38;;;;;;;4.27;2.40;;;21.70;18.10;;;;;;5059643;28;46436;-66
2022/08/13 07:54:05;;;;;;;5.10;2.40;;;21.70;17.90;;;;;;5058564;28;46729;-66
2022/08/13 07:56:32;;;;;;;6.33;2.47;;;21.20;27.40;;;;;;5059931;28;47518;-66
2022/08/13 07:59:07;;;;;;;4.57;2.37;;;21.40;18.30;;;;;;5063239;28;46812;-66
2022/08/13 08:01:43;;;;;;;4.13;2.33;;;21.40;18.70;;;;;;5071534;28;45819;-65
2022/08/13 08:04:13;;;;;;;7.50;2.20;;;21.40;18.50;;;;;;5061936;28;46402;-66
2022/08/13 08:06:41;;;;;;;4.13;2.17;;;21.50;18.20;;;;;;5057577;28;46623;-66
2022/08/13 08:09:08;;;;;;;5.20;2.50;;;;;;;;;;5054256;28;47412;-65
2022/08/13 08:14:20;;;;;;;4.83;2.60;;;21.80;28.20;;;;;;5057013;28;46571;-65
2022/08/13 08:16:46;;;;;;;3.80;2.30;;;;;;;;;;5055238;28;46597;-66
2022/08/13 08:19:14;;;;;;;11.50;2.40;;;22.20;17.50;;;;;;5056440;28;47953;-67
2022/08/13 08:21:40;;;;;;;4.40;2.40;;;22.20;18.40;;;;;;5057749;28;46445;-66
2022/08/13 08:24:06;;;;;;;4.17;2.13;;;22.30;18.30;;;;;;5057541;28;46349;-65
2022/08/13 08:26:34;;;;;;;6.93;2.30;;;22.40;17.00;;;;;;5058880;28;46722;-66
2022/08/13 08:29:04;;;;;;;9.40;2.33;;;22.50;17.80;;;;;;5056666;28;46473;-65
2022/08/13 08:31:33;;;;;;;4.07;2.13;;;22.60;17.70;;;;;;5059254;28;46228;-67
2022/08/13 08:34:01;;;;;;;5.37;2.30;;;22.90;17.50;;;;;;5056787;28;46504;-68
2022/08/13 08:36:28;;;;;;;4.13;2.50;;;23.00;16.60;;;;;;5056040;28;46593;-68
2022/08/13 08:44:30;;;;;;;5.13;2.83;;;23.00;17.30;;;;;;5061646;28;46516;-66
2022/08/13 08:46:59;;;;;;;4.10;2.20;;;22.50;17.30;;;;;;5057543;28;46436;-68
2022/08/13 08:49:25;;;;;;;4.30;2.30;;;22.60;16.30;;;;;;5058252;28;48391;-68
2022/08/13 08:51:52;;;;;;;9.20;2.27;;;22.90;15.10;;;;;;5061270;28;46404;-69
2022/08/13 08:54:20;;;;;;;3.17;1.70;;;23.20;14.70;;;;;;5061803;28;46467;-67
2022/08/13 08:56:47;;;;;;;8.87;2.67;;;23.40;14.30;;;;;;5060586;28;46607;-68
2022/08/13 08:59:14;;;;;;;4.77;1.90;;;23.60;17.70;;;;;;5060765;28;47560;-65
2022/08/13 09:01:41;;;;;;;5.30;2.30;;;23.50;14.20;;;;;;5060993;28;46414;-66
2022/08/13 09:04:08;;;;;;;5.90;2.57;;;23.50;14.00;;;;;;5059600;28;46709;-66
2022/08/13 09:06:35;;;;;;;5.30;1.93;;;23.20;13.70;;;;;;5060917;28;46632;-68
2022/08/13 09:09:02;;;;;;;6.40;2.27;;;23.10;13.70;;;;;;5060242;28;46397;-67
2022/08/13 09:11:34;;;;;;;6.33;2.03;;;23.10;17.40;;;;;;5061078;28;46411;-67
2022/08/13 09:14:03;;;;;;;5.50;2.40;;;23.10;14.20;;;;;;5060623;28;46579;-67
2022/08/13 09:16:30;;;;;;;8.33;2.30;;;;;;;;;;5061858;28;46396;-68
2022/08/13 09:18:57;;;;;;;5.93;1.97;;;23.20;13.60;;;;;;5059594;28;49601;-68
2022/08/13 09:21:22;;;;;;;5.40;1.87;;;23.50;13.50;;;;;;5060000;28;46434;-67
2022/08/13 09:23:48;;;;;;;6.57;1.90;;;;;;;;;;5062796;28;46433;-68
2022/08/13 09:26:15;;;;;;;4.50;2.10;;;24.20;13.70;;;;;;5060849;28;46382;-67
2022/08/13 09:28:42;;;;;;;3.57;2.00;;;24.10;11.60;;;;;;5058244;28;47220;-67
2022/08/13 09:31:10;;;;;;;5.63;2.47;;;23.80;12.90;;;;;;5060588;28;46606;-67
2022/08/13 09:33:39;;;;;;;4.17;2.30;;;24.10;11.40;;;;;;5060611;28;46341;-68
2022/08/13 09:36:09;;;;;;;3.80;2.10;;;24.20;15.10;;;;;;5059613;28;46462;-67
2022/08/13 09:38:36;;;;;;;3.87;2.20;;;24.30;11.40;;;;;;5061193;28;47184;-68
2022/08/13 09:41:19;;;;;;;5.00;1.77;;;24.20;10.80;;;;;;5061087;28;46470;-69
2022/08/13 09:43:45;;;;;;;3.87;2.00;;;24.20;11.00;;;;;;5076758;27;46489;-70
2022/08/13 09:46:12;;;;;;;3.43;2.00;;;;;;;;;;5062420;28;46471;-69
2022/08/13 09:48:38;;;;;;;4.27;2.30;;;24.30;11.20;;;;;;5065266;28;46807;-69
2022/08/13 09:51:13;;;;;;;4.93;2.07;;;24.20;15.00;;;;;;5060823;28;46467;-64
2022/08/13 09:53:40;;;;;;;3.20;1.73;;;24.60;11.30;;;;;;5059453;28;46474;-66
2022/08/13 09:56:06;;;;;;;3.90;2.30;;;24.40;11.30;;;;;;5061497;28;46647;-65
2022/08/13 09:58:32;;;;;;;10.83;2.40;;;;;;;;;;5059904;28;46718;-66
2022/08/13 10:00:58;;;;;;;7.63;2.30;;;24.70;12.10;;;;;;5060289;28;46853;-65
2022/08/13 10:03:24;;;;;;;5.10;2.37;;;;;;;;;;5061836;28;46342;-65
2022/08/13 10:05:51;;;;;;;4.90;2.47;;;;;;;;;;5059297;28;46628;-67
2022/08/13 10:08:18;;;;;;;3.63;2.17;;;24.80;10.80;;;;;;5059896;28;47080;-67
2022/08/13 10:10:47;;;;;;;15.20;2.80;;;24.70;13.10;;;;;;5060412;28;46423;-66
2022/08/13 10:13:13;;;;;;;3.67;2.40;;;24.80;9.90;;;;;;5059914;28;45917;-67
2022/08/13 10:15:39;;;;;;;3.57;2.33;;;25.00;10.10;;;;;;5061455;28;46460;-67
2022/08/13 10:18:06;;;;;;;6.00;2.40;;;25.20;10.30;;;;;;5057466;28;46867;-66
2022/08/13 10:20:36;;;;;;;5.23;2.27;;;24.70;14.30;;;;;;5059697;28;46413;-66
2022/08/13 10:23:08;;;;;;;11.80;2.30;;;24.50;10.90;;;;;;5061888;28;46693;-65
2022/08/13 10:25:34;;;;;;;5.80;2.53;;;24.70;10.00;;;;;;5060977;28;46548;-65
2022/08/13 10:28:00;;;;;;;3.80;2.10;;;;;;;;;;5059925;28;47893;-67
2022/08/13 10:30:27;;;;;;;7.17;2.77;;;25.00;13.50;;;;;;5060805;28;46663;-66
2022/08/13 10:32:55;;;;;;;3.87;2.53;;;25.10;9.60;;;;;;5060069;28;46291;-66
2022/08/13 10:35:23;;;;;;;7.10;2.83;;;;;;;;;;5061809;28;46310;-66
2022/08/13 10:37:53;;;;;;;3.70;2.37;;;25.70;8.60;;;;;;5059553;28;46456;-66
2022/08/13 10:40:20;;;;;;;6.60;2.17;;;25.40;12.70;;;;;;5057055;28;46162;-66
2022/08/13 10:42:46;;;;;;;3.70;1.97;;;;;;;;;;5059574;28;46404;-67
2022/08/13 10:45:13;;;;;;;3.87;2.47;;;;;;;;;;5060610;28;45981;-67
2022/08/13 10:47:51;;;;;;;5.97;2.80;;;25.80;7.30;;;;;;5059429;28;46371;-68
2022/08/13 10:50:19;;;;;;;5.20;2.20;;;26.10;7.30;;;;;;5058942;28;46845;-67
2022/08/13 10:52:46;;;;;;;5.23;2.20;;;26.10;6.40;;;;;;5065895;28;46471;-67
2022/08/13 10:55:13;;;;;;;3.40;1.80;;;25.50;8.30;;;;;;5060224;28;46390;-67
2022/08/13 10:57:44;;;;;;;6.30;2.17;;;25.50;6.90;;;;;;5059239;28;46563;-67
2022/08/13 11:00:13;;;;;;;3.20;2.17;;;25.60;7.00;;;;;;5059019;28;45865;-67
2022/08/13 11:02:38;;;;;;;5.97;2.70;;;25.90;12.20;;;;;;5059249;28;46637;-67
2022/08/13 11:05:06;;;;;;;6.93;2.90;;;25.70;10.40;;;;;;5061105;28;46430;-69
2022/08/13 11:07:33;;;;;;;6.43;2.47;;;25.70;6.50;;;;;;5059206;28;47165;-68
2022/08/13 11:09:59;;;;;;;6.40;2.40;;;25.60;11.30;;;;;;5059858;28;46373;-67
2022/08/13 11:12:25;;;;;;;5.53;2.20;;;25.60;6.70;;;;;;5060160;28;46682;-68
2022/08/13 11:14:51;;;;;;;8.70;1.90;;;25.80;7.60;;;;;;5061554;28;46538;-68
2022/08/13 11:17:18;;;;;;;7.80;2.10;;;26.50;7.20;;;;;;5058838;28;46979;-69
2022/08/13 11:19:46;;;;;;;3.70;2.23;;;26.60;10.70;;;;;;5059419;28;46522;-69
2022/08/13 11:22:12;;;;;;;5.70;2.10;;;26.90;6.60;;;;;;5060027;28;46579;-69
2022/08/13 11:24:38;;;;;;;3.83;2.00;;;26.90;10.10;;;;;;5062666;28;46271;-69
2022/08/13 11:27:04;;;;;;;5.23;2.10;;;26.90;3.60;;;;;;5056086;28;46691;-68
2022/08/13 11:29:30;;;;;;;10.53;2.70;;;26.70;6.10;;;;;;5062011;28;46396;-71
2022/08/13 11:31:56;;;;;;;6.60;1.90;;;26.50;4.70;;;;;;5060121;28;46425;-68
2022/08/13 11:34:23;;;;;;;3.47;1.60;;;;;;;;;;5061639;28;46566;-68
2022/08/13 11:36:49;;;;;;;4.80;1.90;;;;;;;;;;5059133;28;46488;-69
2022/08/13 11:39:15;;;;;;;3.40;1.87;;;26.80;4.90;;;;;;5059361;28;46515;-68
2022/08/13 11:41:40;;;;;;;4.33;2.20;;;26.60;9.10;;;;;;5060517;28;46491;-69
2022/08/13 11:44:06;;;;;;;8.83;2.20;;;;;;;;;;5061178;28;46456;-68
2022/08/13 11:46:33;;;;;;;3.20;1.87;;;;;;;;;;5059203;28;47200;-67
2022/08/13 11:48:59;;;;;;;4.10;2.23;;;;;;;;;;5057865;28;46435;-68
2022/08/13 11:51:24;;;;;;;3.87;2.10;;;;;;;;;;5059540;28;46354;-67
2022/08/13 11:53:50;;;;;;;3.73;1.90;;;26.70;8.70;;;;;;5061757;28;46490;-68
2022/08/13 11:56:16;;;;;;;3.37;1.83;;;26.10;4.10;;;;;;5064463;28;47112;-68
2022/08/13 11:58:42;;;;;;;7.53;2.20;;;;;;;;;;5054086;28;46471;-68
2022/08/13 12:01:08;;;;;;;6.03;2.50;;;;;;;;;;5057168;28;46484;-68
2022/08/13 12:03:35;;;;;;;14.77;2.40;;;26.30;3.40;;;;;;5058452;28;46460;-67
2022/08/13 12:06:01;;;;;;;9.60;1.97;;;26.80;3.60;;;;;;5056139;28;46465;-66
2022/08/13 12:08:27;;;;;;;3.67;1.83;;;26.50;10.10;;;;;;5059088;28;46474;-67
2022/08/13 12:10:53;;;;;;;5.37;1.80;;;;;;;;;;5056127;28;46441;-69
2022/08/13 12:13:19;;;;;;;4.27;1.90;;;;;;;;;;5058703;28;46517;-70
2022/08/13 12:15:45;;;;;;;2.80;1.70;;;;;;;;;;5055169;28;46900;-69
2022/08/13 12:18:12;;;;;;;4.77;2.07;;;26.20;3.40;;;;;;5054227;28;46802;-68
2022/08/13 12:20:38;;;;;;;5.60;2.40;;;;;;;;;;5054776;28;46492;-68
2022/08/13 12:23:04;;;;;;;2.90;1.80;;;26.50;5.20;;;;;;5055817;28;46543;-69
2022/08/13 12:25:31;;;;;;;4.40;2.00;;;26.20;3.20;;;;;;5060674;28;46428;-68
2022/08/13 12:28:20;;;;;;;4.07;2.17;;;26.10;3.10;;;;;;5056621;28;46694;-68
2022/08/13 12:30:58;;;;;;;4.83;2.20;;;26.00;3.70;;;;;;5056967;28;46447;-68
2022/08/13 12:33:25;;;;;;;8.10;2.20;;;25.90;3.70;;;;;;5055220;28;46416;-69
2022/08/13 12:35:51;;;;;;;3.67;2.27;;;25.60;6.90;;;;;;5056976;28;46210;-69
2022/08/13 12:38:16;;;;;;;3.60;2.20;;;25.50;9.80;;;;;;5057996;28;46476;-69
2022/08/13 12:40:45;;;;;;;4.23;1.90;;;25.80;4.40;;;;;;5057444;28;46408;-68
2022/08/13 12:43:11;;;;;;;3.23;1.90;;;;;;;;;;5058938;28;45993;-69
2022/08/13 12:45:37;;;;;;;6.50;2.20;;;26.30;4.40;;;;;;5058500;28;47186;-68
2022/08/13 12:48:04;;;;;;;6.37;2.03;;;26.30;4.20;;;;;;5054827;28;46370;-68
2022/08/13 12:50:29;;;;;;;4.77;2.10;;;26.50;10.30;;;;;;5051448;28;46229;-68
2022/08/13 12:52:55;;;;;;;8.70;2.40;;;;;;;;;;5056390;28;46489;-70
2022/08/13 12:55:22;;;;;;;8.35;2.25;;;;;;;;;;5056944;28;46475;-68
2022/08/13 12:57:48;;;;;;;3.30;2.07;;;;;;;;;;5058098;28;46731;-70
2022/08/13 13:00:14;;;;;;;3.07;2.10;;;;;;;;;;5058856;28;46474;-69
2022/08/13 13:02:41;;;;;;;4.27;1.97;;;26.80;3.70;;;;;;5059909;28;46479;-69
2022/08/13 13:05:07;;;;;;;13.50;2.33;;;;;;;;;;5055431;28;47715;-71
2022/08/13 13:07:33;;;;;;;3.53;1.60;;;27.10;2.40;;;;;;5057839;28;46432;-68
2022/08/13 13:09:59;;;;;;;4.47;1.50;;;28.00;5.20;;;;;;5057376;28;46670;-70
2022/08/13 13:12:26;;;;;;;2.73;1.77;;;27.50;1.00;;;;;;5059412;28;46581;-69
2022/08/13 13:14:51;;;;;;;3.43;2.07;;;27.60;4.00;;;;;;5058479;28;46764;-69
2022/08/13 13:17:17;;;;;;;2.77;1.73;;;;;;;;;;5055463;28;46387;-69
2022/08/13 13:19:43;;;;;;;3.33;1.80;;;27.70;5.80;;;;;;5057512;28;46353;-69
2022/08/13 13:22:10;;;;;;;2.87;1.70;;;;;;;;;;5059343;28;46401;-67
2022/08/13 13:24:37;;;;;;;4.50;1.97;;;;;;;;;;5056961;28;46462;-68
2022/08/13 13:27:04;;;;;;;2.67;1.60;;;;;;;;;;5055192;28;46449;-69
2022/08/13 13:29:38;;;;;;;7.77;1.70;;;28.50;4.10;;;;;;5060702;28;46405;-69
2022/08/13 13:32:06;;;;;;;8.30;1.93;;;28.20;1.00;;;;;;5061370;28;46336;-69
2022/08/13 13:34:32;;;;;;;3.87;2.20;;;;;;;;;;5062540;28;46425;-69
2022/08/13 13:36:58;;;;;;;3.50;1.70;;;28.40;5.00;;;;;;5060770;28;46371;-69
2022/08/13 13:39:24;;;;;;;4.87;2.17;;;;;;;;;;5061206;28;46405;-69